Swiss Alp, Texas
Current Conditions -  °F | °C
As of 6:50 AM on Wednesday 26 Nov 2014 (Local Time) from K3T5 Reporting Station
Clear Clear  
Wind Chill: 44°   Ceiling: Unl
Heat Index: 47°   Visibility: 10mi
Dew Point: 36°   Wind: 7mph
Humidity: 65%   Direction: 220°SW
Pressure: 30.19"   Gusts: NA
Location:  29.7125°N, 96.9231°W
Report Text: K3T5 261250Z AUTO 22006KT 10SM CLR 08/02 A3019 RMK AO2 T00840021
Loading
Personal Weather Stations






























Interactive Weather Map New forecast layout! Learn more

10-Day Weather Forecast

Advertisements
Track Severe Weather on mobile